This is the latest recevied weather packets stored in our database for station/object EA5JMY-10. If no packets are shown the sender has not sent any weather packets the latest 10 day(s).
| Time | Temp. | Humidity | Pressure | Rain* | Wind** | Luminosity | Snow |
|---|---|---|---|---|---|---|---|
| 1777879792 | 22.78° C | 58% | 1014.9 hPa | - | - | - | - |
| 1777878892 | 23.33° C | 55% | 1015 hPa | - | - | - | - |
| 1777877992 | 20.56° C | 65% | 1014.9 hPa | - | - | - | - |
| 1777877092 | 20.56° C | 65% | 1015 hPa | - | - | - | - |
| 1777876192 | 20° C | 67% | 1014.9 hPa | - | - | - | - |
| 1777875292 | 19.44° C | 69% | 1014.9 hPa | - | - | - | - |
| 1777874392 | 19.44° C | 69% | 1014.8 hPa | - | - | - | - |
| 1777873491 | 18.33° C | 74% | 1014.7 hPa | - | - | - | - |
| 1777872591 | 17.78° C | 74% | 1014.6 hPa | - | - | - | - |
| 1777871691 | 18.33° C | 74% | 1014.6 hPa | - | - | - | - |
| 1777870791 | 17.78° C | 76% | 1014.6 hPa | - | - | - | - |
| 1777869891 | 17.78° C | 76% | 1014.6 hPa | - | - | - | - |
| 1777868991 | 18.33° C | 75% | 1014.5 hPa | - | - | - | - |
| 1777868091 | 18.33° C | 73% | 1014.7 hPa | - | - | - | - |
| 1777867191 | 18.89° C | 73% | 1014.9 hPa | - | - | - | - |
| 1777866291 | 18.89° C | 74% | 1015.1 hPa | - | - | - | - |
| 1777865390 | 18.89° C | 75% | 1015.4 hPa | - | - | - | - |
| 1777864490 | 18.89° C | 75% | 1015.4 hPa | - | - | - | - |
| 1777863590 | 18.89° C | 75% | 1015.6 hPa | - | - | - | - |
| 1777862690 | 18.89° C | 75% | 1015.7 hPa | - | - | - | - |
| 1777861790 | 18.89° C | 76% | 1015.6 hPa | - | - | - | - |
| 1777860890 | 18.89° C | 76% | 1015.5 hPa | - | - | - | - |
| 1777859990 | 18.89° C | 76% | 1015.7 hPa | - | - | - | - |
| 1777859090 | 18.89° C | 76% | 1015.6 hPa | - | - | - | - |
| 1777858190 | 18.89° C | 76% | 1015.6 hPa | - | - | - | - |
* Rain since midnight (hover to see other rain measurements)
** Current wind speed in m/s (hover to see current wind gust speed)